Архив погоды в Шлиссельбурге

Метеограмма Шлиссельбург
Среда, 26 Сентября
Время местн. Темп Ветер Видим Явления Облачность нижн/средн/верх Атм. давл. Влжн Точка росы ВНГО R Сост. почвы Tg s
Напр Скр Прв ур.ст ур.м изм
03:00 +2.6° Ю,Ю-З 1 - 20 км - ясно 761 763 -0.3 94% +1.8° более 2.5 км - - - -
00:00 +3.4° Ю-З 1 - 20 км - ясно 762 763 +0.2 80% +0.2° более 2.5 км - - - -
Вторник, 25 Сентября
Время местн. Темп Ветер Видим Явления Облачность нижн/средн/верх Атм. давл. Влжн Точка росы ВНГО R Сост. почвы Tg s
Напр Скр Прв ур.ст ур.м изм
21:00 +4.4° З 1 - 20 км - ясно 761 763 +1.6 74% +0.2° более 2.5 км 0 - - -
18:00 +8.5° С-З 1 - 20 км - незначительная облачность 760 761 +1.5 52% -0.7° - - - - -
15:00 +9.8° С 2 - 20 км - переменная облачность 758 760 +1.7 57% +1.7° 1.5 км - - - -
12:00 +9° С 2 - 20 км - переменная облачность 757 758 +1.6 66% +2.9° 1.5 км - - - -
09:00 +4.8° С-З 2 - 20 км - переменная облачность 755 757 +1.4 92% +3.6° 600 м 0 Влажная (без луж) - -
06:00 +4° С-З 1 - 20 км - ясно 754 755 +1.1 99% +3.8° более 2.5 км - - - -
03:00 +4.4° С 1 - 20 км - ясно 753 754 +0.4 99% +4.2° более 2.5 км - - - -
00:00 +5.7° С 1 - 20 км - ясно 752 754 +0.8 97% +5.2° более 2.5 км - - - -
Понедельник, 24 Сентября
Время местн. Темп Ветер Видим Явления Облачность нижн/средн/верх Атм. давл. Влжн Точка росы ВНГО R Сост. почвы Tg s
Напр Скр Прв ур.ст ур.м изм
21:00 +6.4° штиль 0 - 20 км - переменная облачность 752 753 +0.5 93% +5.3° более 2.5 км 0 - - -
18:00 +11.5° Ю 1 - 20 км - переменная облачность 751 752 +0.1 73% +6.9° 1 км - - - -
15:00 +12.3° Ю,Ю-З 1 - 20 км - преимущественно облачно 751 752 +0.5 73% +7.6° 1 км - - - -
12:00 +9.6° Ю,Ю-З 2 - 20 км - преимущественно облачно 758 752 +0.8 89% +7.9° 1 км - - - -
09:00 +8.3° Ю 2 - 20 км облака рассеиваются {ливневые осадки} преимущественно облачно 750 751 +0.2 97% +7.9° 600 м 2 - - -
06:00 +8.2° Ю 2 - 20 км - облачно 750 751 -0.1 96% +7.6° 600 м - - - -
03:00 +7.9° Ю,Ю-З 2 - 20 км - облачно 750 751 +0.2 96% +7.3° 600 м - - - -
00:00 +7.8° Ю,Ю-З 2 - 20 км - ясно 749 751 +0.5 93% +6.7° более 2.5 км - - - -
Воскресенье, 23 Сентября
Время местн. Темп Ветер Видим Явления Облачность нижн/средн/верх Атм. давл. Влжн Точка росы ВНГО R Сост. почвы Tg s
Напр Скр Прв ур.ст ур.м изм
21:00 +8.8° Ю 2 - 20 км - переменная облачность 749 750 +0.2 87% +6.7° - 1 - - -
18:00 +12.3° Ю,Ю-З 2 - 20 км - переменная облачность 749 750 -0.2 70% +6.9° 1.5 км - - - -
15:00 +10.9° Ю,Ю-З 3 - 20 км ливневый дождь переменная облачность 749 750 -0.3 86% +8.7° 1.5 км - - - -
12:00 +10.9° Ю 2 - 20 км - облачно 749 751 -0.5 80% +7.6° 1 км - - - -
09:00 +9.4° Ю,Ю-З 2 - 20 км - облачно 750 751 -0.6 97% +9° 300 м 0 - - -
06:00 +9° Ю 2 - 20 км - переменная облачность 750 752 -0.6 97% +8.6° - - - - -
03:00 +10.8° Ю 2 - 20 км - облачно с прояснениями 751 752 -0.5 97% +10.4° - - - - -
00:00 +11.5° Ю 2 - 20 км - переменная облачность 752 753 -0.5 97% +11.1° - - - - -